createdAt,value
2022-11-12T00:01:16.969Z,11.38
2022-11-12T00:06:38.812Z,12.45
2022-11-12T00:12:00.671Z,12.80
2022-11-12T00:17:22.518Z,12.82
2022-11-12T00:22:44.762Z,13.15
2022-11-12T00:28:09.753Z,12.88
2022-11-12T00:33:31.745Z,11.45
2022-11-12T00:38:53.576Z,11.52
2022-11-12T00:44:15.429Z,11.13
2022-11-12T00:49:37.347Z,10.90
2022-11-12T00:54:59.173Z,11.57
2022-11-12T01:00:21.165Z,11.50
2022-11-12T01:05:42.961Z,11.20
2022-11-12T01:11:07.086Z,11.70
2022-11-12T01:16:31.394Z,11.23
2022-11-12T01:21:53.209Z,10.63
2022-11-12T01:27:15.104Z,10.18
2022-11-12T01:32:37.122Z,9.90
2022-11-12T01:37:58.959Z,11.20
2022-11-12T01:43:20.765Z,10.35
2022-11-12T01:48:59.698Z,10.88
2022-11-12T01:54:22.589Z,10.55
2022-11-12T01:59:47.988Z,11.23
2022-11-12T02:05:11.244Z,10.60
2022-11-12T02:10:34.801Z,10.57
2022-11-12T02:15:56.611Z,10.82
2022-11-12T02:21:20.302Z,11.02
2022-11-12T02:26:46.055Z,11.63
2022-11-12T02:32:07.913Z,11.67
2022-11-12T02:37:29.709Z,11.35
2022-11-12T02:42:51.574Z,11.45
2022-11-12T02:48:18.953Z,12.23
2022-11-12T02:53:41.629Z,11.98
2022-11-12T02:59:03.596Z,11.45
2022-11-12T03:04:25.459Z,12.45
2022-11-12T03:09:47.912Z,12.30
2022-11-12T03:15:10.088Z,13.98
2022-11-12T03:20:31.922Z,12.07
2022-11-12T03:25:53.945Z,13.05
2022-11-12T03:31:15.792Z,12.15
2022-11-12T03:36:37.651Z,13.40
2022-11-12T03:41:59.500Z,13.90
2022-11-12T03:47:21.356Z,12.85
2022-11-12T03:52:47.597Z,13.98
2022-11-12T03:58:09.406Z,13.68
2022-11-12T04:03:31.232Z,13.15
2022-11-12T04:08:53.013Z,13.38
2022-11-12T04:14:14.797Z,13.63
2022-11-12T04:19:36.628Z,14.15
2022-11-12T04:24:58.444Z,14.07
2022-11-12T04:30:20.297Z,13.40
2022-11-12T04:35:42.116Z,14.07
2022-11-12T04:41:03.914Z,12.77
2022-11-12T04:46:25.718Z,12.18
2022-11-12T04:51:47.537Z,13.40
2022-11-12T04:57:09.640Z,13.50
2022-11-12T05:02:31.514Z,12.05
2022-11-12T05:07:53.321Z,12.10
2022-11-12T05:13:15.115Z,12.32
2022-11-12T05:18:36.893Z,12.55
2022-11-12T05:23:58.772Z,12.80
2022-11-12T05:29:20.619Z,11.93
2022-11-12T05:34:42.772Z,13.05
2022-11-12T05:40:05.118Z,13.27
2022-11-12T05:45:26.950Z,17.13
2022-11-12T05:51:11.928Z,16.80
2022-11-12T05:56:35.602Z,18.17
2022-11-12T06:01:57.407Z,17.83
2022-11-12T06:07:19.321Z,18.35
2022-11-12T06:12:41.436Z,19.38
2022-11-12T06:18:03.343Z,19.95
2022-11-12T06:23:25.125Z,19.13
2022-11-12T06:28:47.804Z,21.55
2022-11-12T06:34:09.642Z,21.77
2022-11-12T06:39:32.625Z,20.38
2022-11-12T06:44:54.466Z,19.20
2022-11-12T06:50:16.377Z,20.58
2022-11-12T06:55:38.181Z,18.85
2022-11-12T07:01:10.965Z,20.67
2022-11-12T07:06:34.387Z,23.17
2022-11-12T07:11:56.316Z,22.80
2022-11-12T07:17:18.224Z,22.13
2022-11-12T07:22:40.059Z,22.50
2022-11-12T07:28:01.878Z,22.65
2022-11-12T07:33:23.897Z,23.08
2022-11-12T07:38:46.228Z,22.30
2022-11-12T07:44:08.066Z,22.80
2022-11-12T07:49:29.983Z,22.50
2022-11-12T07:54:51.918Z,22.25
2022-11-12T08:00:14.547Z,23.70
2022-11-12T08:05:36.323Z,24.15
2022-11-12T08:10:59.622Z,25.60
2022-11-12T08:16:21.554Z,25.30
2022-11-12T08:21:43.379Z,26.05
2022-11-12T08:27:05.226Z,27.27
2022-11-12T08:32:27.413Z,27.70
2022-11-12T08:37:49.315Z,27.90
2022-11-12T08:43:11.522Z,28.05
2022-11-12T08:48:34.334Z,29.17
2022-11-12T08:53:56.173Z,27.95
2022-11-12T08:59:17.952Z,28.10
2022-11-12T09:04:39.761Z,28.48
2022-11-12T09:10:01.695Z,27.67
2022-11-12T09:15:40.213Z,29.13
2022-11-12T09:21:08.387Z,28.40
2022-11-12T09:26:30.168Z,28.13
2022-11-12T09:31:52.022Z,28.70
2022-11-12T09:37:13.927Z,29.30
2022-11-12T09:42:36.767Z,30.25
2022-11-12T09:48:05.940Z,29.50
2022-11-12T09:53:56.427Z,29.45
2022-11-12T09:59:19.302Z,29.20
2022-11-12T10:04:51.454Z,32.03
2022-11-12T10:10:19.067Z,27.85
2022-11-12T10:15:53.887Z,29.80
2022-11-12T10:21:24.444Z,29.73
2022-11-12T10:26:46.721Z,28.42
2022-11-12T10:32:15.121Z,26.63
2022-11-12T10:37:42.740Z,26.17
2022-11-12T10:43:25.582Z,25.05
2022-11-12T10:48:57.197Z,26.30
2022-11-12T10:54:27.775Z,23.95
2022-11-12T11:00:12.288Z,24.55
2022-11-12T11:05:35.575Z,25.45
2022-11-12T11:11:28.161Z,24.50
2022-11-12T11:16:53.154Z,24.00
2022-11-12T11:22:27.312Z,20.80
2022-11-12T11:28:15.028Z,22.88
2022-11-12T11:34:02.591Z,21.67
2022-11-12T11:39:44.612Z,22.80
2022-11-12T11:45:16.238Z,22.05
2022-11-12T11:50:54.705Z,21.73
2022-11-12T11:56:40.072Z,22.05
2022-11-12T12:02:17.630Z,22.30
2022-11-12T12:07:58.978Z,21.30
2022-11-12T12:14:00.710Z,22.98
2022-11-12T12:19:25.584Z,22.40
2022-11-12T12:24:54.856Z,19.75
2022-11-12T12:30:22.765Z,18.67
2022-11-12T12:35:54.960Z,18.33
2022-11-12T12:41:26.858Z,18.40
2022-11-12T12:46:54.892Z,17.83
2022-11-12T12:52:16.946Z,17.25
2022-11-12T12:57:39.827Z,16.77
2022-11-12T13:03:02.071Z,19.92
2022-11-12T13:08:26.181Z,16.90
2022-11-12T13:13:48.266Z,16.60
2022-11-12T13:19:10.114Z,14.75
2022-11-12T13:25:26.105Z,14.52
2022-11-12T13:30:47.839Z,14.98
2022-11-12T13:36:27.857Z,30.58
2022-11-12T13:41:59.377Z,14.77
2022-11-12T13:47:22.477Z,14.18
2022-11-12T13:52:46.087Z,13.95
2022-11-12T13:58:19.939Z,14.20
2022-11-12T14:03:48.603Z,13.93
2022-11-12T14:09:13.349Z,13.57
2022-11-12T14:15:12.504Z,14.63
2022-11-12T14:20:40.271Z,13.32
2022-11-12T14:26:02.111Z,14.73
2022-11-12T14:31:25.248Z,14.70
2022-11-12T14:36:47.717Z,16.23
2022-11-12T14:42:15.138Z,13.52
2022-11-12T14:47:36.987Z,11.88
2022-11-12T14:53:09.625Z,13.48
2022-11-12T14:58:33.254Z,13.65
2022-11-12T15:04:10.981Z,13.82
2022-11-12T15:09:35.241Z,14.60
2022-11-12T15:15:26.509Z,14.60
2022-11-12T15:21:27.909Z,14.75
2022-11-12T15:26:50.428Z,15.73
2022-11-12T15:32:14.018Z,16.63
2022-11-12T15:37:42.336Z,15.82
2022-11-12T15:43:14.411Z,18.17
2022-11-12T15:48:36.233Z,16.52
2022-11-12T15:53:58.001Z,15.88
2022-11-12T15:59:19.821Z,18.17
2022-11-12T16:04:41.613Z,16.58
2022-11-12T16:10:03.612Z,17.85
2022-11-12T16:15:25.655Z,17.20
2022-11-12T16:20:48.025Z,17.10
2022-11-12T16:26:14.681Z,17.20
2022-11-12T16:36:58.690Z,17.88
2022-11-12T16:42:20.504Z,19.70
2022-11-12T16:47:49.903Z,18.27
2022-11-12T16:53:12.045Z,17.85
2022-11-12T16:58:33.811Z,18.33
2022-11-12T17:03:56.834Z,18.88
2022-11-12T17:09:18.609Z,19.55
2022-11-12T17:14:40.388Z,18.83
2022-11-12T17:20:02.239Z,16.83
2022-11-12T17:25:24.012Z,18.00
2022-11-12T17:30:45.787Z,19.58
2022-11-12T17:36:09.917Z,17.50
2022-11-12T17:41:31.810Z,17.48
2022-11-12T17:46:53.670Z,21.10
2022-11-12T17:52:15.533Z,19.30
2022-11-12T17:57:37.460Z,18.77
2022-11-12T18:02:59.356Z,19.95
2022-11-12T18:08:21.178Z,18.83
2022-11-12T18:13:42.976Z,19.92
2022-11-12T18:19:05.093Z,18.27
2022-11-12T18:24:26.897Z,18.02
2022-11-12T18:29:48.665Z,17.42
2022-11-12T18:35:10.452Z,18.15
2022-11-12T18:40:32.254Z,17.63
2022-11-12T18:45:57.972Z,16.90
2022-11-12T18:51:20.202Z,17.37
2022-11-12T18:56:42.302Z,16.40
2022-11-12T19:02:04.183Z,19.17
2022-11-12T19:07:26.084Z,20.02
2022-11-12T19:12:47.862Z,18.65
2022-11-12T19:18:09.647Z,19.58
2022-11-12T19:23:31.727Z,20.23
2022-11-12T19:28:54.036Z,18.85
2022-11-12T19:34:15.846Z,19.55
2022-11-12T19:39:37.629Z,19.73
2022-11-12T19:44:59.472Z,22.65
2022-11-12T19:50:24.655Z,21.55
2022-11-12T19:55:46.784Z,21.45
2022-11-12T20:01:10.873Z,22.80
2022-11-12T20:06:32.688Z,22.85
2022-11-12T20:11:54.490Z,21.95
2022-11-12T20:17:16.277Z,22.63
2022-11-12T20:22:38.108Z,22.70
2022-11-12T20:27:59.927Z,23.67
2022-11-12T20:33:21.691Z,25.40
2022-11-12T20:38:44.590Z,26.63
2022-11-12T20:44:06.658Z,25.35
2022-11-12T20:49:28.573Z,27.17
2022-11-12T20:54:50.364Z,29.63
2022-11-12T21:00:14.720Z,29.38
2022-11-12T21:05:37.805Z,30.42
2022-11-12T21:11:02.298Z,31.42
2022-11-12T21:16:24.126Z,32.97
2022-11-12T21:21:46.128Z,33.67
2022-11-12T21:27:07.926Z,34.72
2022-11-12T21:32:29.716Z,35.47
2022-11-12T21:37:51.588Z,33.95
2022-11-12T21:43:13.429Z,37.55
2022-11-12T21:48:35.763Z,36.45
2022-11-12T21:54:00.531Z,38.97
2022-11-12T21:59:22.316Z,38.90
2022-11-12T22:04:44.146Z,40.22
2022-11-12T22:10:06.505Z,40.17
2022-11-12T22:15:28.297Z,39.90
2022-11-12T22:21:00.958Z,38.30
2022-11-12T22:26:25.525Z,39.22
2022-11-12T22:31:47.367Z,39.47
2022-11-12T22:37:09.137Z,39.83
2022-11-12T22:42:30.949Z,38.70
2022-11-12T22:47:52.839Z,41.38
2022-11-12T22:53:14.624Z,39.78
2022-11-12T22:58:37.578Z,37.45
2022-11-12T23:04:01.747Z,37.00
2022-11-12T23:09:23.525Z,38.20
2022-11-12T23:14:45.325Z,37.13
2022-11-12T23:20:07.749Z,35.92
2022-11-12T23:25:29.789Z,36.92
2022-11-12T23:30:51.615Z,36.55
2022-11-12T23:36:13.996Z,35.78
2022-11-12T23:41:35.989Z,35.30
2022-11-12T23:46:57.829Z,35.80
2022-11-12T23:52:19.604Z,36.72
2022-11-12T23:57:41.395Z,35.13
